KCTZ/CTZ METAR and TAF weather

Enter ICAO airport designator
Station Type Date Time Source
KCTZ METAR 2018/07/20 14:15 UTC NOAA

KCTZ 201415Z AUTO 04005KT 10SM CLR 27/22 A3006 RMK AO2 T02710221


Station Type Date Time Source
KCTZ Decoded METAR 2018/07/20 14:15 UTC NOAA

Clinton, Sampson County Airport, NC, United States (KCTZ) 34-58-32N 078-21-53W
Jul 20, 2018 - 10:15 AM EDT / 2018.07.20 1415 UTC
Wind: from the NE (040 degrees) at 6 MPH (5 KT):0
Visibility: 10 mile(s):0
Sky conditions: clear
Temperature: 80.8 F (27.1 C)
Dew Point: 71.8 F (22.1 C)
Relative Humidity: 74%
Pressure (altimeter): 30.06 in. Hg (1017 hPa)
ob: KCTZ 201415Z AUTO 04005KT 10SM CLR 27/22 A3006 RMK AO2 T02710221
cycle: 14

Station Type Date Time Source
KCTZ TAF UTC NOAA

Error!


Example: see airport list